createdAt,value
2023-09-11T00:02:45.907Z,100451.20
2023-09-11T00:07:50.165Z,100447.00
2023-09-11T00:12:58.644Z,100447.20
2023-09-11T00:18:03.220Z,100443.20
2023-09-11T00:23:09.953Z,100442.00
2023-09-11T00:28:20.341Z,100439.20
2023-09-11T00:33:24.581Z,100439.00
2023-09-11T00:38:29.008Z,100440.40
2023-09-11T00:43:34.167Z,100430.60
2023-09-11T00:48:38.769Z,100437.00
2023-09-11T00:53:43.422Z,100436.40
2023-09-11T00:58:51.995Z,100431.40
2023-09-11T01:03:55.915Z,100429.40
2023-09-11T01:09:00.576Z,100424.20
2023-09-11T01:14:11.163Z,100421.20
2023-09-11T01:19:37.100Z,100426.80
2023-09-11T01:25:29.799Z,100424.60
2023-09-11T01:30:36.523Z,100418.60
2023-09-11T01:35:40.676Z,100416.40
2023-09-11T01:40:51.275Z,100410.20
2023-09-11T01:46:04.197Z,100406.00
2023-09-11T01:51:21.203Z,100406.40
2023-09-11T01:56:25.495Z,100405.40
2023-09-11T02:01:30.585Z,100404.20
2023-09-11T02:06:51.300Z,100400.40
2023-09-11T02:12:00.466Z,100399.80
2023-09-11T02:17:05.062Z,100398.40
2023-09-11T02:22:22.726Z,100392.20
2023-09-11T02:27:26.635Z,100389.80
2023-09-11T02:32:30.978Z,100391.60
2023-09-11T02:37:36.159Z,100390.00
2023-09-11T02:42:40.333Z,100388.40
2023-09-11T02:47:45.786Z,100390.00
2023-09-11T02:52:49.990Z,100390.20
2023-09-11T02:57:54.224Z,100384.80
2023-09-11T03:03:01.095Z,100381.20
2023-09-11T03:08:09.488Z,100381.40
2023-09-11T03:13:14.302Z,100381.80
2023-09-11T03:18:18.740Z,100373.60
2023-09-11T03:23:37.481Z,100373.20
2023-09-11T03:28:55.431Z,100368.40
2023-09-11T03:33:59.555Z,100363.80
2023-09-11T03:39:06.220Z,100357.00
2023-09-11T03:44:14.539Z,100361.60
2023-09-11T03:49:18.868Z,100359.00
2023-09-11T03:54:23.021Z,100353.80
2023-09-11T03:59:27.500Z,100354.20
2023-09-11T04:04:35.057Z,100349.80
2023-09-11T04:09:39.404Z,100350.60
2023-09-11T04:14:44.916Z,100343.20
2023-09-11T04:19:48.918Z,100341.00
2023-09-11T04:25:07.685Z,100338.00
2023-09-11T04:30:12.495Z,100335.60
2023-09-11T04:35:17.086Z,100334.20
2023-09-11T04:40:21.621Z,100332.40
2023-09-11T04:45:26.578Z,100325.80
2023-09-11T04:50:31.404Z,100325.00
2023-09-11T04:55:35.555Z,100332.20
2023-09-11T05:00:39.757Z,100329.20
2023-09-11T05:05:43.949Z,100331.60
2023-09-11T05:10:48.421Z,100337.00
2023-09-11T05:15:55.387Z,100331.20
2023-09-11T05:21:05.947Z,100336.40
2023-09-11T05:26:25.770Z,100329.80
2023-09-11T05:31:34.436Z,100330.60
2023-09-11T05:36:39.466Z,100336.20
2023-09-11T05:41:45.182Z,100333.20
2023-09-11T05:46:51.307Z,100327.00
2023-09-11T05:52:09.472Z,100335.60
2023-09-11T05:57:13.708Z,100325.20
2023-09-11T06:02:17.632Z,100328.00
2023-09-11T06:12:55.204Z,100331.60
2023-09-11T06:18:02.326Z,100324.80
2023-09-11T06:23:11.721Z,100333.60
2023-09-11T06:28:18.761Z,100334.00
2023-09-11T06:33:23.157Z,100336.40
2023-09-11T06:38:28.917Z,100331.60
2023-09-11T06:43:33.421Z,100332.40
2023-09-11T06:48:43.445Z,100327.80
2023-09-11T06:53:50.380Z,100337.60
2023-09-11T06:58:54.945Z,100337.40
2023-09-11T07:04:13.231Z,100338.60
2023-09-11T07:09:18.443Z,100338.80
2023-09-11T07:14:24.597Z,100341.20
2023-09-11T07:19:33.095Z,100340.00
2023-09-11T07:24:37.817Z,100340.80
2023-09-11T07:29:54.684Z,100342.80
2023-09-11T07:35:12.204Z,100342.00
2023-09-11T07:40:24.427Z,100342.40
2023-09-11T07:45:28.617Z,100341.40
2023-09-11T07:50:33.037Z,100338.20
2023-09-11T07:55:50.940Z,100341.40
2023-09-11T08:00:56.182Z,100341.40
2023-09-11T08:06:02.123Z,100336.80
2023-09-11T08:11:21.950Z,100344.60
2023-09-11T08:16:26.108Z,100337.80
2023-09-11T08:21:30.414Z,100333.40
2023-09-11T08:26:35.595Z,100333.20
2023-09-11T08:31:39.980Z,100338.60
2023-09-11T08:36:46.145Z,100338.40
2023-09-11T08:41:53.784Z,100340.20
2023-09-11T08:47:02.208Z,100336.00
2023-09-11T08:52:12.886Z,100338.60
2023-09-11T08:57:35.010Z,100342.20
2023-09-11T09:02:40.726Z,100339.60
2023-09-11T09:07:47.659Z,100341.60
2023-09-11T09:12:52.953Z,100338.00
2023-09-11T09:17:57.186Z,100338.60
2023-09-11T09:23:03.507Z,100334.20
2023-09-11T09:28:07.840Z,100335.40
2023-09-11T09:33:16.430Z,100335.60
2023-09-11T09:38:22.113Z,100335.80
2023-09-11T09:43:26.072Z,100332.40
2023-09-11T09:48:30.626Z,100322.20
2023-09-11T09:53:44.435Z,100317.60
2023-09-11T09:58:48.824Z,100313.80
2023-09-11T10:03:55.403Z,100308.60
2023-09-11T10:09:13.739Z,100308.60
2023-09-11T10:14:20.233Z,100304.80
2023-09-11T10:19:26.798Z,100301.80
2023-09-11T10:24:32.277Z,100299.80
2023-09-11T10:30:08.860Z,100296.60
2023-09-11T10:35:13.109Z,100291.00
2023-09-11T10:40:18.620Z,100292.40
2023-09-11T10:45:34.316Z,100290.60
2023-09-11T10:50:44.211Z,100289.60
2023-09-11T10:55:50.557Z,100282.40
2023-09-11T11:00:55.992Z,100274.20
2023-09-11T11:06:02.183Z,100275.60
2023-09-11T11:11:18.805Z,100275.80
2023-09-11T11:16:25.155Z,100271.20
2023-09-11T11:21:41.001Z,100268.40
2023-09-11T11:26:45.841Z,100264.40
2023-09-11T11:31:57.795Z,100262.60
2023-09-11T11:37:05.532Z,100262.40
2023-09-11T11:42:09.997Z,100268.00
2023-09-11T11:47:14.223Z,100269.80
2023-09-11T11:52:18.549Z,100266.60
2023-09-11T11:57:26.859Z,100273.80
2023-09-11T12:02:31.553Z,100266.00
2023-09-11T12:07:35.869Z,100271.20
2023-09-11T12:12:43.695Z,100269.40
2023-09-11T12:17:50.859Z,100266.40
2023-09-11T12:22:55.137Z,100267.60
2023-09-11T12:27:59.940Z,100264.40
2023-09-11T12:33:10.320Z,100266.40
2023-09-11T12:38:18.390Z,100258.40
2023-09-11T12:43:23.740Z,100252.60
2023-09-11T12:48:28.035Z,100252.80
2023-09-11T12:53:32.439Z,100252.20
2023-09-11T12:58:42.557Z,100249.80
2023-09-11T13:03:48.664Z,100248.40
2023-09-11T13:08:56.498Z,100243.40
2023-09-11T13:14:14.753Z,100249.80
2023-09-11T13:19:20.647Z,100243.40
2023-09-11T13:24:24.557Z,100250.80
2023-09-11T13:29:28.719Z,100244.80
2023-09-11T13:34:33.225Z,100243.60
2023-09-11T13:39:37.073Z,100244.80
2023-09-11T13:44:41.727Z,100247.80
2023-09-11T13:49:46.667Z,100243.20
2023-09-11T13:54:50.853Z,100238.00
2023-09-11T13:59:55.163Z,100236.60
2023-09-11T14:04:59.627Z,100230.60
2023-09-11T14:10:05.407Z,100226.20
2023-09-11T14:15:10.635Z,100220.80
2023-09-11T14:20:15.481Z,100222.80
2023-09-11T14:25:20.019Z,100219.40
2023-09-11T14:30:24.322Z,100223.40
2023-09-11T14:35:28.868Z,100218.40
2023-09-11T14:40:33.028Z,100220.20
2023-09-11T14:45:37.267Z,100214.40
2023-09-11T14:50:41.693Z,100205.40
2023-09-11T14:55:46.015Z,100186.40
2023-09-11T15:00:50.708Z,100184.40
2023-09-11T15:05:55.147Z,100183.40
2023-09-11T15:11:01.071Z,100187.80
2023-09-11T15:16:05.202Z,100190.60
2023-09-11T15:21:09.264Z,100194.40
2023-09-11T15:26:14.032Z,100198.60
2023-09-11T15:31:18.597Z,100201.00
2023-09-11T15:36:22.940Z,100210.80
2023-09-11T15:41:27.247Z,100214.60
2023-09-11T15:46:41.347Z,100213.00
2023-09-11T15:51:46.039Z,100212.40
2023-09-11T15:56:50.116Z,100208.80
2023-09-11T16:01:54.445Z,100213.80
2023-09-11T16:07:00.583Z,100219.40
2023-09-11T16:12:07.172Z,100223.00
2023-09-11T16:17:11.366Z,100224.00
2023-09-11T16:22:15.344Z,100222.40
2023-09-11T16:27:19.324Z,100226.40
2023-09-11T16:32:24.116Z,100220.60
2023-09-11T16:37:28.482Z,100223.80
2023-09-11T16:42:33.443Z,100221.40
2023-09-11T16:47:37.612Z,100214.40
2023-09-11T16:52:42.255Z,100210.40
2023-09-11T16:57:46.366Z,100208.60
2023-09-11T17:02:57.187Z,100208.20
2023-09-11T17:08:01.905Z,100211.60
2023-09-11T17:13:06.119Z,100211.80
2023-09-11T17:18:10.850Z,100209.20
2023-09-11T17:23:15.861Z,100212.20
2023-09-11T17:28:20.298Z,100212.20
2023-09-11T17:33:25.412Z,100221.00
2023-09-11T17:38:29.371Z,100215.00
2023-09-11T17:43:33.818Z,100211.20
2023-09-11T17:48:38.416Z,100209.80
2023-09-11T17:53:48.771Z,100211.00
2023-09-11T17:59:00.603Z,100207.60
2023-09-11T18:04:05.589Z,100215.60
2023-09-11T18:09:09.994Z,100221.00
2023-09-11T18:14:13.717Z,100222.20
2023-09-11T18:19:18.137Z,100224.60
2023-09-11T18:24:22.478Z,100227.60
2023-09-11T18:29:28.401Z,100231.00
2023-09-11T18:34:33.090Z,100234.20
2023-09-11T18:39:38.364Z,100233.00
2023-09-11T18:44:42.566Z,100229.80
2023-09-11T18:49:47.409Z,100235.40
2023-09-11T18:54:53.682Z,100241.80
2023-09-11T18:59:59.444Z,100243.00
2023-09-11T19:05:04.453Z,100244.80
2023-09-11T19:10:09.765Z,100240.00
2023-09-11T19:15:15.179Z,100240.20
2023-09-11T19:20:19.394Z,100240.20
2023-09-11T19:25:30.760Z,100237.80
2023-09-11T19:30:48.650Z,100239.00
2023-09-11T19:35:58.704Z,100233.60
2023-09-11T19:41:03.044Z,100233.00
2023-09-11T19:46:10.066Z,100233.40
2023-09-11T19:51:23.754Z,100228.00
2023-09-11T19:56:29.751Z,100225.00
2023-09-11T20:01:36.666Z,100222.40
2023-09-11T20:06:41.164Z,100222.20
2023-09-11T20:11:45.953Z,100222.80
2023-09-11T20:16:50.039Z,100225.40
2023-09-11T20:21:58.243Z,100221.20
2023-09-11T20:27:02.224Z,100221.00
2023-09-11T20:32:09.418Z,100219.20
2023-09-11T20:37:14.629Z,100215.20
2023-09-11T20:42:21.026Z,100215.80
2023-09-11T20:47:25.915Z,100206.20
2023-09-11T20:52:32.372Z,100210.80
2023-09-11T20:57:38.194Z,100209.20
2023-09-11T21:02:42.617Z,100211.40
2023-09-11T21:07:47.233Z,100206.20
2023-09-11T21:12:56.787Z,100202.20
2023-09-11T21:18:01.168Z,100204.20
2023-09-11T21:23:06.544Z,100203.20
2023-09-11T21:28:10.444Z,100206.60
2023-09-11T21:33:14.548Z,100212.80
2023-09-11T21:38:18.810Z,100212.80
2023-09-11T21:43:23.085Z,100207.40
2023-09-11T21:48:27.278Z,100209.20
2023-09-11T21:53:31.851Z,100209.20
2023-09-11T21:58:36.200Z,100210.00
2023-09-11T22:03:40.729Z,100209.20
2023-09-11T22:08:45.113Z,100213.60
2023-09-11T22:13:49.082Z,100210.60
2023-09-11T22:18:53.482Z,100203.20
2023-09-11T22:23:57.780Z,100207.20
2023-09-11T22:29:01.986Z,100207.20
2023-09-11T22:34:06.398Z,100207.40
2023-09-11T22:39:10.497Z,100203.20
2023-09-11T22:44:14.998Z,100197.40
2023-09-11T22:49:19.241Z,100198.20
2023-09-11T22:54:25.188Z,100196.80
2023-09-11T22:59:29.359Z,100196.20
2023-09-11T23:04:33.798Z,100192.60
2023-09-11T23:09:38.208Z,100188.40
2023-09-11T23:14:42.258Z,100185.80
2023-09-11T23:19:46.186Z,100185.00
2023-09-11T23:24:50.435Z,100183.40
2023-09-11T23:29:54.464Z,100185.40
2023-09-11T23:34:58.912Z,100182.40
2023-09-11T23:40:03.759Z,100174.60
2023-09-11T23:45:08.754Z,100174.00
2023-09-11T23:50:12.745Z,100173.60
2023-09-11T23:55:17.808Z,100171.20
